createdAt,value
2019-02-14T00:00:14.196Z,1.48
2019-02-14T00:02:43.953Z,1.70
2019-02-14T00:05:16.431Z,1.70
2019-02-14T00:07:44.073Z,1.70
2019-02-14T00:10:13.909Z,1.81
2019-02-14T00:12:42.996Z,1.82
2019-02-14T00:15:13.224Z,1.80
2019-02-14T00:17:42.812Z,1.63
2019-02-14T00:20:12.172Z,1.50
2019-02-14T00:22:41.328Z,1.44
2019-02-14T00:25:11.641Z,1.35
2019-02-14T00:27:41.149Z,1.54
2019-02-14T00:30:10.416Z,1.54
2019-02-14T00:32:39.437Z,1.46
2019-02-14T00:35:08.896Z,1.39
2019-02-14T00:37:38.032Z,1.36
2019-02-14T00:40:09.376Z,1.55
2019-02-14T00:42:38.483Z,1.44
2019-02-14T00:45:08.605Z,1.52
2019-02-14T00:47:37.998Z,1.52
2019-02-14T00:50:08.092Z,1.26
2019-02-14T00:52:37.517Z,1.25
2019-02-14T00:55:07.041Z,1.18
2019-02-14T00:57:36.920Z,1.18
2019-02-14T01:00:08.450Z,1.12
2019-02-14T01:02:37.727Z,1.35
2019-02-14T01:05:08.120Z,1.06
2019-02-14T01:07:37.006Z,1.16
2019-02-14T01:10:07.192Z,1.30
2019-02-14T01:12:36.854Z,1.36
2019-02-14T01:15:09.774Z,1.32
2019-02-14T01:17:39.558Z,1.42
2019-02-14T01:20:08.730Z,1.38
2019-02-14T01:22:38.118Z,1.37
2019-02-14T01:25:07.794Z,1.20
2019-02-14T01:27:36.871Z,1.04
2019-02-14T01:30:08.646Z,1.29
2019-02-14T01:32:38.184Z,1.18
2019-02-14T01:35:09.192Z,1.06
2019-02-14T01:37:38.633Z,1.06
2019-02-14T01:40:08.752Z,1.14
2019-02-14T01:42:38.408Z,1.03
2019-02-14T01:45:10.462Z,0.84
2019-02-14T01:47:40.662Z,0.67
2019-02-14T01:50:11.098Z,0.87
2019-02-14T01:52:40.533Z,0.96
2019-02-14T01:55:10.085Z,1.10
2019-02-14T01:57:39.688Z,0.96
2019-02-14T02:00:11.978Z,0.88
2019-02-14T02:02:41.719Z,0.97
2019-02-14T02:05:12.795Z,0.98
2019-02-14T02:07:41.928Z,0.74
2019-02-14T02:10:12.131Z,1.01
2019-02-14T02:12:41.792Z,1.00
2019-02-14T02:15:13.130Z,1.00
2019-02-14T02:17:42.512Z,0.94
2019-02-14T02:20:11.824Z,1.03
2019-02-14T02:22:41.808Z,0.93
2019-02-14T02:25:12.073Z,0.89
2019-02-14T02:27:41.258Z,0.77
2019-02-14T02:30:13.031Z,0.67
2019-02-14T02:32:42.440Z,0.57
2019-02-14T02:35:11.832Z,0.72
2019-02-14T02:37:41.688Z,0.72
2019-02-14T02:40:11.090Z,0.78
2019-02-14T02:42:40.619Z,0.83
2019-02-14T02:45:12.110Z,0.65
2019-02-14T02:47:41.468Z,0.65
2019-02-14T02:50:12.244Z,0.66
2019-02-14T02:52:41.957Z,0.48
2019-02-14T02:55:11.363Z,0.48
2019-02-14T02:57:40.997Z,0.61
2019-02-14T03:00:17.624Z,0.61
2019-02-14T03:02:46.575Z,0.61
2019-02-14T03:05:16.378Z,0.71
2019-02-14T03:07:45.854Z,0.85
2019-02-14T03:10:15.023Z,0.81
2019-02-14T03:12:44.821Z,0.77
2019-02-14T03:15:14.863Z,0.67
2019-02-14T03:17:44.315Z,0.74
2019-02-14T03:20:14.278Z,0.73
2019-02-14T03:22:44.192Z,0.78
2019-02-14T03:25:15.987Z,0.60
2019-02-14T03:27:46.291Z,0.58
2019-02-14T03:30:16.686Z,0.47
2019-02-14T03:32:46.418Z,0.47
2019-02-14T03:35:15.466Z,0.60
2019-02-14T03:37:44.379Z,0.60
2019-02-14T03:40:15.036Z,0.42
2019-02-14T03:42:43.862Z,0.46
2019-02-14T03:45:22.109Z,0.46
2019-02-14T03:47:51.854Z,0.30
2019-02-14T03:50:21.583Z,0.49
2019-02-14T03:52:51.456Z,0.49
2019-02-14T03:55:21.208Z,0.54
2019-02-14T03:57:51.376Z,0.56
2019-02-14T04:00:21.160Z,0.59
2019-02-14T04:02:50.010Z,0.41
2019-02-14T04:05:19.275Z,0.34
2019-02-14T04:07:48.259Z,0.34
2019-02-14T04:10:18.012Z,0.05
2019-02-14T04:12:47.680Z,0.34
2019-02-14T04:15:17.764Z,0.34
2019-02-14T04:17:47.278Z,0.38
2019-02-14T04:20:17.072Z,0.38
2019-02-14T04:22:46.615Z,0.37
2019-02-14T04:25:16.472Z,0.37
2019-02-14T04:27:45.991Z,0.29
2019-02-14T04:30:15.714Z,0.29
2019-02-14T04:32:44.935Z,0.09
2019-02-14T04:35:14.816Z,0.24
2019-02-14T04:37:44.359Z,0.18
2019-02-14T04:40:15.382Z,0.03
2019-02-14T04:42:45.224Z,0.13
2019-02-14T04:45:14.823Z,0.14
2019-02-14T04:47:44.728Z,0.21
2019-02-14T04:50:14.418Z,0.16
2019-02-14T04:52:44.124Z,0.16
2019-02-14T04:55:14.065Z,0.20
2019-02-14T04:57:44.156Z,0.20
2019-02-14T05:00:16.646Z,0.09
2019-02-14T05:02:45.950Z,0.08
2019-02-14T05:05:15.800Z,0.07
2019-02-14T05:07:45.578Z,0.04
2019-02-14T05:10:15.324Z,0.04
2019-02-14T05:12:45.082Z,0.29
2019-02-14T05:15:15.830Z,0.22
2019-02-14T05:17:45.594Z,0.15
2019-02-14T05:20:15.522Z,0.15
2019-02-14T05:22:45.164Z,-0.01
2019-02-14T05:25:14.471Z,-0.01
2019-02-14T05:27:43.712Z,0.00
2019-02-14T05:30:19.918Z,0.00
2019-02-14T05:32:48.822Z,0.08
2019-02-14T05:35:18.414Z,0.08
2019-02-14T05:37:47.610Z,0.20
2019-02-14T05:40:16.609Z,0.01
2019-02-14T05:42:46.035Z,0.07
2019-02-14T05:45:15.416Z,0.16
2019-02-14T05:47:44.600Z,0.06
2019-02-14T05:50:14.657Z,-0.04
2019-02-14T05:52:43.636Z,0.04
2019-02-14T05:55:12.838Z,0.04
2019-02-14T05:57:42.758Z,0.18
2019-02-14T06:00:16.873Z,0.11
2019-02-14T06:02:46.153Z,0.11
2019-02-14T06:05:16.758Z,0.09
2019-02-14T06:07:45.876Z,-0.13
2019-02-14T06:10:15.694Z,-0.13
2019-02-14T06:12:44.910Z,0.14
2019-02-14T06:15:14.690Z,-0.10
2019-02-14T06:17:43.898Z,-0.10
2019-02-14T06:20:12.970Z,-0.06
2019-02-14T06:22:42.580Z,-0.17
2019-02-14T06:25:12.347Z,-0.21
2019-02-14T06:27:41.526Z,-0.18
2019-02-14T06:30:16.820Z,-0.13
2019-02-14T06:32:46.054Z,-0.13
2019-02-14T06:35:15.215Z,0.04
2019-02-14T06:37:44.546Z,-0.21
2019-02-14T06:40:13.910Z,0.01
2019-02-14T06:42:43.565Z,0.01
2019-02-14T06:45:14.622Z,0.31
2019-02-14T06:47:43.804Z,0.29
2019-02-14T06:50:14.360Z,0.29
2019-02-14T06:52:43.289Z,0.22
2019-02-14T06:55:12.753Z,0.21
2019-02-14T06:57:41.918Z,0.19
2019-02-14T07:00:17.272Z,0.20
2019-02-14T07:02:47.083Z,0.28
2019-02-14T07:05:16.716Z,0.34
2019-02-14T07:07:45.970Z,0.22
2019-02-14T07:10:15.471Z,0.22
2019-02-14T07:12:44.542Z,0.26
2019-02-14T07:15:14.377Z,0.17
2019-02-14T07:17:43.628Z,0.09
2019-02-14T07:20:16.950Z,0.27
2019-02-14T07:22:46.378Z,0.32
2019-02-14T07:25:15.500Z,0.32
2019-02-14T07:27:45.079Z,0.53
2019-02-14T07:30:20.744Z,0.53
2019-02-14T07:32:50.130Z,0.47
2019-02-14T07:35:19.477Z,0.42
2019-02-14T07:37:48.788Z,0.49
2019-02-14T07:40:18.930Z,0.66
2019-02-14T07:42:48.356Z,0.66
2019-02-14T07:45:20.939Z,0.82
2019-02-14T07:47:50.108Z,0.83
2019-02-14T07:50:19.216Z,0.83
2019-02-14T07:52:48.556Z,0.78
2019-02-14T07:55:17.945Z,0.81
2019-02-14T07:57:47.024Z,1.19
2019-02-14T08:00:22.463Z,1.26
2019-02-14T08:02:52.780Z,1.27
2019-02-14T08:05:21.803Z,1.27
2019-02-14T08:07:50.954Z,1.39
2019-02-14T08:10:20.150Z,1.37
2019-02-14T08:12:49.166Z,1.54
2019-02-14T08:15:18.558Z,1.71
2019-02-14T08:17:47.843Z,1.71
2019-02-14T08:20:19.543Z,1.84
2019-02-14T08:22:49.947Z,2.06
2019-02-14T08:25:20.249Z,1.99
2019-02-14T08:27:50.201Z,1.99
2019-02-14T08:30:21.294Z,2.13
2019-02-14T08:32:50.447Z,1.96
2019-02-14T08:35:19.850Z,1.96
2019-02-14T08:37:49.370Z,2.13
2019-02-14T08:40:30.020Z,2.03
2019-02-14T08:42:59.883Z,2.03
2019-02-14T08:45:28.877Z,2.15
2019-02-14T08:47:58.245Z,2.15
2019-02-14T08:50:28.708Z,2.40
2019-02-14T08:52:59.058Z,2.51
2019-02-14T08:55:38.590Z,2.58
2019-02-14T08:58:07.681Z,2.62
2019-02-14T09:00:38.326Z,2.59
2019-02-14T09:03:07.987Z,2.48
2019-02-14T09:05:37.735Z,2.67
2019-02-14T09:08:07.438Z,3.01
2019-02-14T09:10:36.928Z,3.01
2019-02-14T09:13:06.629Z,2.98
2019-02-14T09:15:36.246Z,3.00
2019-02-14T09:18:05.159Z,2.92
2019-02-14T09:20:35.345Z,2.78
2019-02-14T09:23:04.697Z,2.82
2019-02-14T09:25:34.635Z,2.95
2019-02-14T09:28:03.421Z,3.22
2019-02-14T09:30:32.477Z,3.38
2019-02-14T09:33:02.109Z,3.46
2019-02-14T09:35:31.837Z,4.43
2019-02-14T09:38:03.503Z,5.11
2019-02-14T09:40:32.315Z,6.03
2019-02-14T09:43:01.547Z,7.25
2019-02-14T09:45:31.451Z,6.46
2019-02-14T09:48:01.254Z,6.72
2019-02-14T09:50:30.135Z,7.48
2019-02-14T09:52:59.859Z,6.89
2019-02-14T09:55:29.762Z,6.83
2019-02-14T09:57:59.595Z,9.73
2019-02-14T10:00:29.278Z,7.98
2019-02-14T10:02:58.325Z,7.51
2019-02-14T10:05:27.496Z,7.77
2019-02-14T10:07:56.415Z,8.66
2019-02-14T10:10:25.233Z,7.30
2019-02-14T10:12:54.849Z,6.96
2019-02-14T10:15:24.046Z,7.23
2019-02-14T10:17:53.063Z,9.74
2019-02-14T10:20:22.861Z,8.62
2019-02-14T10:22:52.498Z,7.29
2019-02-14T10:25:22.345Z,8.12
2019-02-14T10:27:51.553Z,10.42
2019-02-14T10:30:22.373Z,8.29
2019-02-14T10:32:52.234Z,7.93
2019-02-14T10:35:21.967Z,9.27
2019-02-14T10:37:51.840Z,9.42
2019-02-14T10:40:21.456Z,7.88
2019-02-14T10:42:51.188Z,7.24
2019-02-14T10:45:23.355Z,8.24
2019-02-14T10:47:53.114Z,8.72
2019-02-14T10:50:22.977Z,9.35
2019-02-14T10:52:52.893Z,11.32
2019-02-14T10:55:21.825Z,10.24
2019-02-14T10:57:50.791Z,11.46
2019-02-14T11:00:26.775Z,12.22
2019-02-14T11:02:56.696Z,11.25
2019-02-14T11:05:26.645Z,13.68
2019-02-14T11:07:56.421Z,12.05
2019-02-14T11:10:26.231Z,11.37
2019-02-14T11:12:56.209Z,10.40
2019-02-14T11:15:25.751Z,8.39
2019-02-14T11:17:55.643Z,9.52
2019-02-14T11:20:25.606Z,9.30
2019-02-14T11:22:54.539Z,9.18
2019-02-14T11:25:29.845Z,12.18
2019-02-14T11:27:59.756Z,10.35
2019-02-14T11:30:29.490Z,10.20
2019-02-14T11:32:59.426Z,9.49
2019-02-14T11:35:29.255Z,9.79
2019-02-14T11:37:59.025Z,11.64
2019-02-14T11:40:28.022Z,11.31
2019-02-14T11:42:57.037Z,14.16
2019-02-14T11:45:26.817Z,15.11
2019-02-14T11:47:56.945Z,12.53
2019-02-14T11:50:26.740Z,11.51
2019-02-14T11:52:56.739Z,14.93
2019-02-14T11:55:25.747Z,17.78
2019-02-14T11:57:55.661Z,21.33
2019-02-14T12:00:26.699Z,16.02
2019-02-14T12:02:56.694Z,19.42
2019-02-14T12:05:26.131Z,18.56
2019-02-14T12:07:55.219Z,18.34
2019-02-14T12:10:24.568Z,18.21
2019-02-14T12:12:53.429Z,17.76
2019-02-14T12:15:23.368Z,17.40
2019-02-14T12:17:52.549Z,17.27
2019-02-14T12:20:22.042Z,19.92
2019-02-14T12:22:51.846Z,22.27
2019-02-14T12:25:32.722Z,17.94
2019-02-14T12:28:01.617Z,19.39
2019-02-14T12:30:31.449Z,19.80
2019-02-14T12:33:01.409Z,19.83
2019-02-14T12:35:31.765Z,16.73
2019-02-14T12:38:01.255Z,17.65
2019-02-14T12:40:30.373Z,20.04
2019-02-14T12:43:00.205Z,17.94
2019-02-14T12:45:29.989Z,18.85
2019-02-14T12:47:59.202Z,14.99
2019-02-14T12:50:29.170Z,14.21
2019-02-14T12:52:59.120Z,18.76
2019-02-14T12:55:29.221Z,14.09
2019-02-14T12:57:58.188Z,16.18
2019-02-14T13:00:28.124Z,14.96
2019-02-14T13:02:57.087Z,14.66
2019-02-14T13:05:26.675Z,14.17
2019-02-14T13:07:55.895Z,12.83
2019-02-14T13:10:24.832Z,13.04
2019-02-14T13:12:54.735Z,18.60
2019-02-14T13:15:26.254Z,19.23
2019-02-14T13:17:55.581Z,14.78
2019-02-14T13:20:25.490Z,13.70
2019-02-14T13:22:55.418Z,12.10
2019-02-14T13:25:25.395Z,12.24
2019-02-14T13:27:54.557Z,11.82
2019-02-14T13:30:27.013Z,11.57
2019-02-14T13:32:57.840Z,13.30
2019-02-14T13:35:27.003Z,12.58
2019-02-14T13:37:56.339Z,13.66
2019-02-14T13:40:26.226Z,11.39
2019-02-14T13:42:55.897Z,11.02
2019-02-14T13:45:26.095Z,13.31
2019-02-14T13:47:55.091Z,11.88
2019-02-14T13:50:24.279Z,11.50
2019-02-14T13:52:53.620Z,11.83
2019-02-14T13:55:23.445Z,11.78
2019-02-14T13:57:52.605Z,12.38
2019-02-14T14:00:27.127Z,13.67
2019-02-14T14:02:56.935Z,11.74
2019-02-14T14:05:26.686Z,13.99
2019-02-14T14:07:57.717Z,14.10
2019-02-14T14:10:27.076Z,13.56
2019-02-14T14:12:55.964Z,13.85
2019-02-14T14:15:25.183Z,12.70
2019-02-14T14:17:54.233Z,14.24
2019-02-14T14:20:23.390Z,13.57
2019-02-14T14:22:52.487Z,13.08
2019-02-14T14:25:21.788Z,13.24
2019-02-14T14:27:51.697Z,13.05
2019-02-14T14:30:21.346Z,13.49
2019-02-14T14:32:50.514Z,12.48
2019-02-14T14:35:20.437Z,12.15
2019-02-14T14:37:49.384Z,10.92
2019-02-14T14:40:20.478Z,10.27
2019-02-14T14:42:51.792Z,10.08
2019-02-14T14:45:41.244Z,9.86
2019-02-14T14:48:19.220Z,9.29
2019-02-14T14:50:42.627Z,9.30
2019-02-14T14:53:11.726Z,8.89
2019-02-14T14:55:41.629Z,8.92
2019-02-14T14:58:11.636Z,8.94
2019-02-14T15:00:40.841Z,9.34
2019-02-14T15:03:10.180Z,9.31
2019-02-14T15:05:39.615Z,9.22
2019-02-14T15:08:09.927Z,9.22
2019-02-14T15:10:39.336Z,9.24
2019-02-14T15:13:08.870Z,9.10
2019-02-14T15:15:38.738Z,9.08
2019-02-14T15:18:07.700Z,9.06
2019-02-14T15:20:36.762Z,8.87
2019-02-14T15:23:05.864Z,8.90
2019-02-14T15:25:35.121Z,8.96
2019-02-14T15:28:04.446Z,8.90
2019-02-14T15:30:36.255Z,8.75
2019-02-14T15:33:05.540Z,8.84
2019-02-14T15:35:34.648Z,8.57
2019-02-14T15:38:04.583Z,8.54
2019-02-14T15:40:34.294Z,8.44
2019-02-14T15:43:03.554Z,8.55
2019-02-14T15:45:33.129Z,8.58
2019-02-14T15:48:04.036Z,8.46
2019-02-14T15:50:33.381Z,8.65
2019-02-14T15:53:02.693Z,8.55
2019-02-14T15:55:31.621Z,8.21
2019-02-14T15:58:01.157Z,8.27
2019-02-14T16:00:32.706Z,8.29
2019-02-14T16:03:02.402Z,8.00
2019-02-14T16:05:32.857Z,8.14
2019-02-14T16:08:04.831Z,8.07
2019-02-14T16:10:34.314Z,7.91
2019-02-14T16:13:05.818Z,8.06
2019-02-14T16:15:35.069Z,8.01
2019-02-14T16:18:04.698Z,8.05
2019-02-14T16:20:34.287Z,7.97
2019-02-14T16:23:05.854Z,8.00
2019-02-14T16:25:34.421Z,7.64
2019-02-14T16:28:03.759Z,7.79
2019-02-14T16:30:33.404Z,7.88
2019-02-14T16:33:02.422Z,7.79
2019-02-14T16:35:31.627Z,7.60
2019-02-14T16:38:01.238Z,7.63
2019-02-14T16:40:38.346Z,7.58
2019-02-14T16:43:04.552Z,7.51
2019-02-14T16:45:34.056Z,7.31
2019-02-14T16:48:03.458Z,7.14
2019-02-14T16:50:33.075Z,7.26
2019-02-14T16:53:02.316Z,7.30
2019-02-14T16:55:31.951Z,7.28
2019-02-14T16:58:01.061Z,7.28
2019-02-14T17:00:31.776Z,7.33
2019-02-14T17:03:01.335Z,7.11
2019-02-14T17:05:31.737Z,6.89
2019-02-14T17:08:01.065Z,6.94
2019-02-14T17:10:36.698Z,7.11
2019-02-14T17:13:01.776Z,7.24
2019-02-14T17:15:31.248Z,7.28
2019-02-14T17:18:00.889Z,7.09
2019-02-14T17:20:30.434Z,6.99
2019-02-14T17:22:59.875Z,6.83
2019-02-14T17:25:28.855Z,7.00
2019-02-14T17:27:58.275Z,6.99
2019-02-14T17:30:29.294Z,6.82
2019-02-14T17:32:59.101Z,6.48
2019-02-14T17:35:28.686Z,6.69
2019-02-14T17:37:59.077Z,6.71
2019-02-14T17:40:28.720Z,6.85
2019-02-14T17:42:58.782Z,6.63
2019-02-14T17:45:28.373Z,6.48
2019-02-14T17:47:58.242Z,6.51
2019-02-14T17:50:27.318Z,6.59
2019-02-14T17:52:57.323Z,6.48
2019-02-14T17:55:27.821Z,6.32
2019-02-14T17:58:18.764Z,6.06
2019-02-14T18:00:48.024Z,6.24
2019-02-14T18:03:17.365Z,6.42
2019-02-14T18:05:49.097Z,6.16
2019-02-14T18:08:18.348Z,5.88
2019-02-14T18:10:54.754Z,5.82
2019-02-14T18:13:19.973Z,5.84
2019-02-14T18:15:50.095Z,5.88
2019-02-14T18:18:19.420Z,5.82
2019-02-14T18:20:49.880Z,5.62
2019-02-14T18:23:19.109Z,5.36
2019-02-14T18:25:48.442Z,5.29
2019-02-14T18:28:17.679Z,5.48
2019-02-14T18:30:49.130Z,5.69
2019-02-14T18:33:19.278Z,5.74
2019-02-14T18:35:48.634Z,5.71
2019-02-14T18:38:17.618Z,5.55
2019-02-14T18:40:47.016Z,5.45
2019-02-14T18:43:16.425Z,5.40
2019-02-14T18:45:45.937Z,5.52
2019-02-14T18:48:15.607Z,5.37
2019-02-14T18:50:46.261Z,5.25
2019-02-14T18:53:17.563Z,4.95
2019-02-14T18:55:50.963Z,4.88
2019-02-14T18:58:26.353Z,5.04
2019-02-14T19:00:56.402Z,5.02
2019-02-14T19:03:33.847Z,5.19
2019-02-14T19:06:05.071Z,5.23
2019-02-14T19:08:37.105Z,5.20
2019-02-14T19:11:14.965Z,5.29
2019-02-14T19:13:38.579Z,5.13
2019-02-14T19:16:10.182Z,4.88
2019-02-14T19:18:40.537Z,5.00
2019-02-14T19:21:21.514Z,5.02
2019-02-14T19:23:56.582Z,4.90
2019-02-14T19:26:30.450Z,4.88
2019-02-14T19:29:00.423Z,4.80
2019-02-14T19:31:36.469Z,4.61
2019-02-14T19:34:07.303Z,4.48
2019-02-14T19:36:39.685Z,4.39
2019-02-14T19:39:09.987Z,4.71
2019-02-14T19:41:51.718Z,4.77
2019-02-14T19:44:26.192Z,4.76
2019-02-14T19:46:56.785Z,4.77
2019-02-14T19:49:27.591Z,4.59
2019-02-14T19:51:58.031Z,4.49
2019-02-14T19:54:27.694Z,4.28
2019-02-14T19:56:57.682Z,4.39
2019-02-14T20:02:16.475Z,4.30
2019-02-14T20:04:45.764Z,4.34
2019-02-14T20:07:15.380Z,4.24
2019-02-14T20:09:45.034Z,4.10
2019-02-14T20:12:15.157Z,4.02
2019-02-14T20:14:45.780Z,4.10
2019-02-14T20:17:16.651Z,4.09
2019-02-14T20:19:45.856Z,4.12
2019-02-14T20:22:17.082Z,4.11
2019-02-14T20:24:47.620Z,4.09
2019-02-14T20:27:24.887Z,4.08
2019-02-14T20:29:54.835Z,4.06
2019-02-14T20:32:24.158Z,4.09
2019-02-14T20:34:54.312Z,4.04
2019-02-14T20:37:23.327Z,3.94
2019-02-14T20:39:52.729Z,4.10
2019-02-14T20:42:22.942Z,4.11
2019-02-14T20:44:52.496Z,4.10
2019-02-14T20:47:22.354Z,4.02
2019-02-14T20:49:51.601Z,3.83
2019-02-14T20:52:20.903Z,3.66
2019-02-14T20:54:51.015Z,3.75
2019-02-14T20:57:20.197Z,3.62
2019-02-14T20:59:49.605Z,3.55
2019-02-14T21:02:19.819Z,3.66
2019-02-14T21:04:49.280Z,3.69
2019-02-14T21:07:19.241Z,3.61
2019-02-14T21:09:49.153Z,3.59
2019-02-14T21:12:18.984Z,3.73
2019-02-14T21:14:48.906Z,3.77
2019-02-14T21:17:19.091Z,3.94
2019-02-14T21:19:48.918Z,3.82
2019-02-14T21:22:18.827Z,3.74
2019-02-14T21:24:48.970Z,3.71
2019-02-14T21:27:18.461Z,3.79
2019-02-14T21:29:48.516Z,3.76
2019-02-14T21:32:18.180Z,3.54
2019-02-14T21:34:47.377Z,3.43
2019-02-14T21:37:16.443Z,3.61
2019-02-14T21:39:45.742Z,3.61
2019-02-14T21:42:20.675Z,3.64
2019-02-14T21:44:46.574Z,3.77
2019-02-14T21:47:15.750Z,3.90
2019-02-14T21:49:44.882Z,3.99
2019-02-14T21:52:14.442Z,4.05
2019-02-14T21:54:44.462Z,4.02
2019-02-14T21:57:14.332Z,4.04
2019-02-14T21:59:44.433Z,4.11
2019-02-14T22:02:14.090Z,4.12
2019-02-14T22:04:44.510Z,4.04
2019-02-14T22:07:13.933Z,4.05
2019-02-14T22:09:43.099Z,4.15
2019-02-14T22:12:13.187Z,4.07
2019-02-14T22:14:42.746Z,4.12
2019-02-14T22:17:12.727Z,4.10
2019-02-14T22:19:43.042Z,3.99
2019-02-14T22:22:13.362Z,4.00
2019-02-14T22:24:42.572Z,4.11
2019-02-14T22:27:11.897Z,4.12
2019-02-14T22:29:41.375Z,4.06
2019-02-14T22:36:10.827Z,4.18
2019-02-14T22:38:41.472Z,4.25
2019-02-14T22:41:10.773Z,4.26
2019-02-14T22:43:40.039Z,4.27
2019-02-14T22:46:09.073Z,4.16
2019-02-14T22:48:39.330Z,4.11
2019-02-14T22:51:08.668Z,4.08
2019-02-14T22:53:38.043Z,4.10
2019-02-14T22:56:07.916Z,4.14
2019-02-14T22:58:38.008Z,4.15
2019-02-14T23:01:07.700Z,4.11
2019-02-14T23:03:36.929Z,4.08
2019-02-14T23:06:06.841Z,4.13
2019-02-14T23:08:36.374Z,4.02
2019-02-14T23:11:05.730Z,3.97
2019-02-14T23:13:34.823Z,3.97
2019-02-14T23:16:04.022Z,3.88
2019-02-14T23:18:34.433Z,3.92
2019-02-14T23:21:03.726Z,3.98
2019-02-14T23:23:33.224Z,4.10
2019-02-14T23:26:03.227Z,4.07
2019-02-14T23:28:32.341Z,4.10
2019-02-14T23:31:01.579Z,3.99
2019-02-14T23:33:30.837Z,4.08
2019-02-14T23:36:00.160Z,4.07
2019-02-14T23:38:29.742Z,3.81
2019-02-14T23:40:59.670Z,3.82
2019-02-14T23:43:28.999Z,4.07
2019-02-14T23:45:58.203Z,4.08
2019-02-14T23:48:27.351Z,3.94
2019-02-14T23:50:56.435Z,4.03
2019-02-14T23:53:25.757Z,3.84
2019-02-14T23:55:55.549Z,3.81
2019-02-14T23:58:24.855Z,3.89
